createdAt,value
2022-11-13T00:00:08.606Z,-55
2022-11-13T00:01:14.837Z,-55
2022-11-13T00:02:21.106Z,-56
2022-11-13T00:03:27.379Z,-54
2022-11-13T00:04:32.671Z,-55
2022-11-13T00:05:38.939Z,-55
2022-11-13T00:06:45.211Z,-56
2022-11-13T00:07:51.532Z,-54
2022-11-13T00:08:57.773Z,-54
2022-11-13T00:10:04.026Z,-54
2022-11-13T00:11:10.302Z,-56
2022-11-13T00:12:16.575Z,-54
2022-11-13T00:13:22.854Z,-56
2022-11-13T00:14:29.122Z,-54
2022-11-13T00:15:35.403Z,-54
2022-11-13T00:16:41.665Z,-55
2022-11-13T00:17:47.949Z,-54
2022-11-13T00:18:53.308Z,-56
2022-11-13T00:19:59.496Z,-55
2022-11-13T00:21:05.753Z,-53
2022-11-13T00:22:12.059Z,-55
2022-11-13T00:23:18.313Z,-54
2022-11-13T00:24:24.576Z,-55
2022-11-13T00:25:30.854Z,-56
2022-11-13T00:26:37.222Z,-56
2022-11-13T00:27:43.404Z,-56
2022-11-13T00:28:49.672Z,-54
2022-11-13T00:29:56.066Z,-54
2022-11-13T00:31:02.233Z,-55
2022-11-13T00:32:08.492Z,-55
2022-11-13T00:33:13.773Z,-54
2022-11-13T00:34:20.050Z,-53
2022-11-13T00:35:26.321Z,-56
2022-11-13T00:36:32.602Z,-56
2022-11-13T00:37:38.927Z,-56
2022-11-13T00:38:45.137Z,-54
2022-11-13T00:39:51.410Z,-56
2022-11-13T00:40:57.684Z,-56
2022-11-13T00:42:03.954Z,-55
2022-11-13T00:43:10.227Z,-56
2022-11-13T00:44:16.498Z,-55
2022-11-13T00:45:22.775Z,-56
2022-11-13T00:46:29.115Z,-56
2022-11-13T00:47:34.332Z,-56
2022-11-13T00:48:40.603Z,-55
2022-11-13T00:49:46.874Z,-55
2022-11-13T00:50:53.153Z,-55
2022-11-13T00:51:59.455Z,-56
2022-11-13T00:53:05.693Z,-55
2022-11-13T00:54:11.962Z,-56
2022-11-13T00:55:18.236Z,-56
2022-11-13T00:56:24.505Z,-56
2022-11-13T00:57:30.786Z,-56
2022-11-13T00:58:37.064Z,-56
2022-11-13T00:59:43.326Z,-56
2022-11-13T01:00:49.611Z,-56
2022-11-13T01:01:54.954Z,-56
2022-11-13T01:03:01.161Z,-54
2022-11-13T01:04:07.467Z,-55
2022-11-13T01:05:13.798Z,-55
2022-11-13T01:06:20.011Z,-56
2022-11-13T01:07:26.246Z,-56
2022-11-13T01:08:32.537Z,-56
2022-11-13T01:09:38.803Z,-56
2022-11-13T01:10:45.061Z,-56
2022-11-13T01:11:51.338Z,-55
2022-11-13T01:12:57.616Z,-56
2022-11-13T01:14:03.879Z,-55
2022-11-13T01:15:10.155Z,-55
2022-11-13T01:16:15.438Z,-56
2022-11-13T01:17:21.712Z,-56
2022-11-13T01:18:27.981Z,-55
2022-11-13T01:19:34.258Z,-55
2022-11-13T01:20:40.614Z,-55
2022-11-13T01:21:46.801Z,-55
2022-11-13T01:22:53.073Z,-56
2022-11-13T01:23:59.422Z,-55
2022-11-13T01:25:05.617Z,-56
2022-11-13T01:26:11.888Z,-55
2022-11-13T01:27:18.162Z,-56
2022-11-13T01:28:24.433Z,-56
2022-11-13T01:29:30.703Z,-55
2022-11-13T01:30:36.985Z,-54
2022-11-13T01:31:42.275Z,-55
2022-11-13T01:32:48.537Z,-55
2022-11-13T01:33:54.812Z,-56
2022-11-13T01:35:01.100Z,-56
2022-11-13T01:36:07.372Z,-56
2022-11-13T01:37:13.631Z,-57
2022-11-13T01:38:19.893Z,-56
2022-11-13T01:39:26.174Z,-56
2022-11-13T01:40:32.443Z,-56
2022-11-13T01:41:38.720Z,-56
2022-11-13T01:42:45.046Z,-56
2022-11-13T01:43:51.257Z,-56
2022-11-13T01:44:57.527Z,-56
2022-11-13T01:46:02.906Z,-56
2022-11-13T01:47:09.092Z,-56
2022-11-13T01:48:15.388Z,-56
2022-11-13T01:49:21.633Z,-55
2022-11-13T01:50:27.923Z,-56
2022-11-13T01:51:33.204Z,-56
2022-11-13T01:52:38.500Z,-55
2022-11-13T01:53:44.764Z,-56
2022-11-13T01:54:51.062Z,-54
2022-11-13T01:55:57.313Z,-54
2022-11-13T01:57:02.635Z,-55
2022-11-13T01:58:07.898Z,-56
2022-11-13T01:59:14.171Z,-53
2022-11-13T02:00:20.451Z,-54
2022-11-13T02:01:26.726Z,-55
2022-11-13T02:02:33.057Z,-55
2022-11-13T02:03:39.313Z,-55
2022-11-13T02:04:45.536Z,-55
2022-11-13T02:05:51.846Z,-56
2022-11-13T02:06:58.075Z,-56
2022-11-13T02:08:04.353Z,-55
2022-11-13T02:09:10.640Z,-54
2022-11-13T02:10:16.891Z,-56
2022-11-13T02:11:23.181Z,-55
2022-11-13T02:12:28.449Z,-55
2022-11-13T02:13:34.724Z,-55
2022-11-13T02:14:40.989Z,-55
2022-11-13T02:15:47.268Z,-56
2022-11-13T02:16:53.555Z,-56
2022-11-13T02:17:59.919Z,-57
2022-11-13T02:19:06.082Z,-55
2022-11-13T02:20:12.360Z,-56
2022-11-13T02:21:18.658Z,-56
2022-11-13T02:22:24.906Z,-54
2022-11-13T02:23:31.173Z,-55
2022-11-13T02:24:37.442Z,-55
2022-11-13T02:25:43.716Z,-55
2022-11-13T02:26:49.014Z,-55
2022-11-13T02:27:55.346Z,-54
2022-11-13T02:29:01.549Z,-55
2022-11-13T02:30:06.844Z,-55
2022-11-13T02:31:12.143Z,-54
2022-11-13T02:32:18.468Z,-56
2022-11-13T02:33:24.708Z,-54
2022-11-13T02:34:31.013Z,-55
2022-11-13T02:35:36.304Z,-54
2022-11-13T02:36:41.540Z,-56
2022-11-13T02:37:47.811Z,-53
2022-11-13T02:38:54.086Z,-55
2022-11-13T02:40:00.363Z,-53
2022-11-13T02:41:06.677Z,-56
2022-11-13T02:42:12.902Z,-55
2022-11-13T02:43:19.172Z,-54
2022-11-13T02:44:25.466Z,-55
2022-11-13T02:45:31.722Z,-56
2022-11-13T02:46:38.000Z,-55
2022-11-13T02:47:44.262Z,-55
2022-11-13T02:48:50.534Z,-55
2022-11-13T02:49:56.815Z,-55
2022-11-13T02:51:02.105Z,-55
2022-11-13T02:52:08.384Z,-55
2022-11-13T02:53:14.684Z,-54
2022-11-13T02:54:20.963Z,-55
2022-11-13T02:55:27.210Z,-54
2022-11-13T02:56:33.454Z,-55
2022-11-13T02:57:39.751Z,-55
2022-11-13T02:58:45.999Z,-54
2022-11-13T02:59:52.311Z,-54
2022-11-13T03:00:58.548Z,-55
2022-11-13T03:02:04.816Z,-56
2022-11-13T03:03:11.087Z,-54
2022-11-13T03:04:17.361Z,-52
2022-11-13T03:05:22.706Z,-54
2022-11-13T03:06:28.924Z,-55
2022-11-13T03:07:35.189Z,-54
2022-11-13T03:08:41.473Z,-53
2022-11-13T03:09:46.771Z,-56
2022-11-13T03:10:53.155Z,-55
2022-11-13T03:11:58.361Z,-54
2022-11-13T03:13:03.818Z,-54
2022-11-13T03:14:09.041Z,-56
2022-11-13T03:15:15.343Z,-55
2022-11-13T03:16:21.461Z,-55
2022-11-13T03:17:26.810Z,-53
2022-11-13T03:18:33.018Z,-54
2022-11-13T03:19:39.413Z,-54
2022-11-13T03:20:45.607Z,-54
2022-11-13T03:21:51.928Z,-55
2022-11-13T03:22:58.140Z,-56
2022-11-13T03:24:04.376Z,-54
2022-11-13T03:25:10.658Z,-56
2022-11-13T03:26:16.925Z,-55
2022-11-13T03:27:23.200Z,-54
2022-11-13T03:28:29.469Z,-54
2022-11-13T03:29:35.740Z,-56
2022-11-13T03:30:42.018Z,-54
2022-11-13T03:31:47.303Z,-56
2022-11-13T03:32:53.599Z,-56
2022-11-13T03:33:59.938Z,-56
2022-11-13T03:35:06.114Z,-55
2022-11-13T03:36:12.438Z,-54
2022-11-13T03:37:18.663Z,-54
2022-11-13T03:38:24.938Z,-54
2022-11-13T03:39:31.214Z,-56
2022-11-13T03:40:37.474Z,-55
2022-11-13T03:41:43.764Z,-56
2022-11-13T03:42:50.136Z,-55
2022-11-13T03:43:56.299Z,-56
2022-11-13T03:45:02.577Z,-55
2022-11-13T03:46:07.854Z,-54
2022-11-13T03:47:14.172Z,-55
2022-11-13T03:48:20.398Z,-55
2022-11-13T03:49:26.676Z,-55
2022-11-13T03:50:32.943Z,-55
2022-11-13T03:51:39.218Z,-54
2022-11-13T03:52:45.483Z,-56
2022-11-13T03:53:51.830Z,-55
2022-11-13T03:54:58.029Z,-55
2022-11-13T03:56:04.303Z,-56
2022-11-13T03:57:10.581Z,-57
2022-11-13T03:58:16.843Z,-56
2022-11-13T03:59:22.145Z,-55
2022-11-13T04:00:27.442Z,-55
2022-11-13T04:01:33.771Z,-56
2022-11-13T04:02:39.022Z,-55
2022-11-13T04:03:44.294Z,-53
2022-11-13T04:04:50.569Z,-55
2022-11-13T04:05:56.859Z,-54
2022-11-13T04:07:03.120Z,-56
2022-11-13T04:08:09.381Z,-55
2022-11-13T04:09:15.649Z,-53
2022-11-13T04:10:21.937Z,-55
2022-11-13T04:11:28.203Z,-55
2022-11-13T04:12:34.474Z,-55
2022-11-13T04:13:40.739Z,-54
2022-11-13T04:14:47.015Z,-55
2022-11-13T04:15:53.295Z,-54
2022-11-13T04:16:59.568Z,-54
2022-11-13T04:18:04.847Z,-55
2022-11-13T04:19:11.120Z,-54
2022-11-13T04:20:17.433Z,-55
2022-11-13T04:21:23.660Z,-55
2022-11-13T04:22:29.937Z,-54
2022-11-13T04:23:36.268Z,-55
2022-11-13T04:24:42.484Z,-55
2022-11-13T04:25:47.779Z,-53
2022-11-13T04:26:53.071Z,-56
2022-11-13T04:27:59.339Z,-55
2022-11-13T04:29:05.610Z,-55
2022-11-13T04:30:11.918Z,-56
2022-11-13T04:31:18.160Z,-53
2022-11-13T04:32:23.459Z,-55
2022-11-13T04:33:28.743Z,-54
2022-11-13T04:34:35.018Z,-55
2022-11-13T04:35:41.351Z,-55
2022-11-13T04:36:47.561Z,-55
2022-11-13T04:37:53.835Z,-55
2022-11-13T04:39:00.117Z,-55
2022-11-13T04:40:06.374Z,-53
2022-11-13T04:41:12.700Z,-56
2022-11-13T04:42:18.952Z,-56
2022-11-13T04:43:25.200Z,-56
2022-11-13T04:44:31.470Z,-56
2022-11-13T04:45:37.735Z,-54
2022-11-13T04:46:44.013Z,-56
2022-11-13T04:47:49.295Z,-54
2022-11-13T04:48:55.569Z,-55
2022-11-13T04:50:01.844Z,-53
2022-11-13T04:51:08.109Z,-55
2022-11-13T04:52:14.385Z,-54
2022-11-13T04:53:20.660Z,-54
2022-11-13T04:54:26.927Z,-54
2022-11-13T04:55:33.206Z,-55
2022-11-13T04:56:39.480Z,-55
2022-11-13T04:57:45.774Z,-53
2022-11-13T04:58:51.054Z,-54
2022-11-13T04:59:56.334Z,-54
2022-11-13T05:01:02.611Z,-55
2022-11-13T05:02:08.883Z,-54
2022-11-13T05:03:15.159Z,-54
2022-11-13T05:04:21.535Z,-55
2022-11-13T05:05:26.765Z,-55
2022-11-13T05:06:32.043Z,-55
2022-11-13T05:07:38.316Z,-55
2022-11-13T05:08:44.605Z,-56
2022-11-13T05:09:50.905Z,-54
2022-11-13T05:10:57.089Z,-53
2022-11-13T05:12:03.396Z,-55
2022-11-13T05:13:09.646Z,-55
2022-11-13T05:14:15.946Z,-54
2022-11-13T05:15:22.192Z,-54
2022-11-13T05:16:28.467Z,-56
2022-11-13T05:17:34.750Z,-55
2022-11-13T05:18:41.018Z,-56
2022-11-13T05:19:47.276Z,-54
2022-11-13T05:20:52.591Z,-54
2022-11-13T05:21:58.835Z,-56
2022-11-13T05:23:05.129Z,-55
2022-11-13T05:24:11.381Z,-53
2022-11-13T05:25:17.654Z,-56
2022-11-13T05:26:23.926Z,-55
2022-11-13T05:27:30.203Z,-55
2022-11-13T05:28:35.509Z,-54
2022-11-13T05:29:40.782Z,-55
2022-11-13T05:30:47.056Z,-55
2022-11-13T05:31:52.406Z,-55
2022-11-13T05:32:57.646Z,-55
2022-11-13T05:34:03.917Z,-54
2022-11-13T05:35:10.191Z,-59
2022-11-13T05:36:16.496Z,-54
2022-11-13T05:37:22.737Z,-55
2022-11-13T05:38:29.045Z,-56
2022-11-13T05:39:35.280Z,-56
2022-11-13T05:40:41.547Z,-55
2022-11-13T05:41:47.820Z,-55
2022-11-13T05:42:54.094Z,-55
2022-11-13T05:44:00.375Z,-55
2022-11-13T05:45:06.636Z,-54
2022-11-13T05:46:12.905Z,-54
2022-11-13T05:47:18.209Z,-56
2022-11-13T05:48:24.477Z,-54
2022-11-13T05:49:30.764Z,-55
2022-11-13T05:50:37.019Z,-55
2022-11-13T05:51:43.286Z,-55
2022-11-13T05:52:49.568Z,-56
2022-11-13T05:53:55.828Z,-56
2022-11-13T05:55:02.106Z,-54
2022-11-13T05:56:08.389Z,-55
2022-11-13T05:57:14.645Z,-54
2022-11-13T05:58:20.920Z,-54
2022-11-13T05:59:27.203Z,-56
2022-11-13T06:00:33.475Z,-54
2022-11-13T06:01:38.749Z,-55
2022-11-13T06:02:45.033Z,-54
2022-11-13T06:03:51.294Z,-55
2022-11-13T06:04:57.570Z,-55
2022-11-13T06:06:03.839Z,-54
2022-11-13T06:07:10.111Z,-53
2022-11-13T06:08:16.373Z,-55
2022-11-13T06:09:22.670Z,-55
2022-11-13T06:10:28.931Z,-55
2022-11-13T06:11:35.199Z,-55
2022-11-13T06:12:41.531Z,-54
2022-11-13T06:13:47.745Z,-54
2022-11-13T06:14:54.016Z,-55
2022-11-13T06:15:59.304Z,-55
2022-11-13T06:17:05.581Z,-55
2022-11-13T06:18:11.851Z,-56
2022-11-13T06:19:18.120Z,-55
2022-11-13T06:20:24.397Z,-56
2022-11-13T06:21:30.672Z,-56
2022-11-13T06:22:36.939Z,-55
2022-11-13T06:23:43.237Z,-53
2022-11-13T06:24:49.479Z,-54
2022-11-13T06:25:55.759Z,-55
2022-11-13T06:27:02.030Z,-56
2022-11-13T06:28:08.306Z,-56
2022-11-13T06:29:14.574Z,-55
2022-11-13T06:30:19.858Z,-55
2022-11-13T06:31:26.132Z,-55
2022-11-13T06:32:32.499Z,-54
2022-11-13T06:33:38.680Z,-55
2022-11-13T06:34:44.946Z,-54
2022-11-13T06:35:51.235Z,-55
2022-11-13T06:36:57.559Z,-56
2022-11-13T06:38:02.911Z,-54
2022-11-13T06:39:08.084Z,-56
2022-11-13T06:40:14.352Z,-55
2022-11-13T06:41:20.635Z,-55
2022-11-13T06:42:26.896Z,-55
2022-11-13T06:43:33.170Z,-56
2022-11-13T06:44:39.446Z,-56
2022-11-13T06:45:45.772Z,-54
2022-11-13T06:46:51.995Z,-54
2022-11-13T06:47:58.260Z,-56
2022-11-13T06:49:04.530Z,-54
2022-11-13T06:50:09.830Z,-55
2022-11-13T06:51:15.120Z,-55
2022-11-13T06:52:21.389Z,-54
2022-11-13T06:53:27.675Z,-56
2022-11-13T06:54:33.938Z,-55
2022-11-13T06:55:40.208Z,-54
2022-11-13T06:56:46.483Z,-54
2022-11-13T06:57:52.754Z,-56
2022-11-13T06:58:58.061Z,-54
2022-11-13T07:00:04.325Z,-54
2022-11-13T07:01:10.617Z,-54
2022-11-13T07:02:16.889Z,-54
2022-11-13T07:03:23.147Z,-56
2022-11-13T07:04:29.407Z,-55
2022-11-13T07:05:35.681Z,-55
2022-11-13T07:06:41.964Z,-55
2022-11-13T07:07:48.224Z,-54
2022-11-13T07:08:54.623Z,-56
2022-11-13T07:10:00.767Z,-53
2022-11-13T07:11:07.047Z,-56
2022-11-13T07:12:13.363Z,-55
2022-11-13T07:13:18.613Z,-55
2022-11-13T07:14:23.903Z,-55
2022-11-13T07:15:30.173Z,-54
2022-11-13T07:16:36.444Z,-55
2022-11-13T07:17:42.718Z,-55
2022-11-13T07:18:48.044Z,-55
2022-11-13T07:19:53.437Z,-55
2022-11-13T07:20:59.576Z,-55
2022-11-13T07:22:05.847Z,-53
2022-11-13T07:23:12.127Z,-54
2022-11-13T07:24:18.440Z,-55
2022-11-13T07:25:24.674Z,-53
2022-11-13T07:26:30.950Z,-54
2022-11-13T07:27:37.210Z,-54
2022-11-13T07:28:43.476Z,-55
2022-11-13T07:29:49.758Z,-55
2022-11-13T07:30:56.028Z,-54
2022-11-13T07:32:02.349Z,-53
2022-11-13T07:33:08.592Z,-56
2022-11-13T07:34:13.915Z,-55
2022-11-13T07:35:20.130Z,-53
2022-11-13T07:36:26.512Z,-54
2022-11-13T07:37:32.683Z,-53
2022-11-13T07:38:38.959Z,-54
2022-11-13T07:39:45.292Z,-53
2022-11-13T07:40:51.537Z,-54
2022-11-13T07:41:57.789Z,-55
2022-11-13T07:43:04.131Z,-49
2022-11-13T07:44:10.325Z,-53
2022-11-13T07:45:16.585Z,-54
2022-11-13T07:47:29.155Z,-54
2022-11-13T07:48:34.478Z,-54
2022-11-13T07:49:40.704Z,-56
2022-11-13T07:50:46.957Z,-53
2022-11-13T07:51:53.324Z,-53
2022-11-13T07:52:59.503Z,-55
2022-11-13T07:54:05.790Z,-54
2022-11-13T07:55:12.042Z,-56
2022-11-13T07:56:18.316Z,-54
2022-11-13T07:57:24.589Z,-53
2022-11-13T07:58:30.905Z,-53
2022-11-13T07:59:37.136Z,-58
2022-11-13T08:00:43.428Z,-53
2022-11-13T08:01:49.750Z,-53
2022-11-13T08:02:55.039Z,-53
2022-11-13T08:04:01.275Z,-54
2022-11-13T08:05:07.514Z,-54
2022-11-13T08:06:13.792Z,-53
2022-11-13T08:07:20.092Z,-55
2022-11-13T08:08:26.333Z,-55
2022-11-13T08:09:32.597Z,-53
2022-11-13T08:10:38.881Z,-53
2022-11-13T08:11:45.200Z,-54
2022-11-13T08:12:51.426Z,-53
2022-11-13T08:13:57.701Z,-52
2022-11-13T08:15:03.961Z,-54
2022-11-13T08:16:10.317Z,-53
2022-11-13T08:17:15.527Z,-53
2022-11-13T08:18:21.847Z,-53
2022-11-13T08:19:28.077Z,-54
2022-11-13T08:20:34.342Z,-54
2022-11-13T08:21:40.706Z,-53
2022-11-13T08:22:46.888Z,-53
2022-11-13T08:23:53.246Z,-53
2022-11-13T08:24:59.431Z,-53
2022-11-13T08:26:05.704Z,-53
2022-11-13T08:27:12.007Z,-53
2022-11-13T08:28:18.249Z,-53
2022-11-13T08:29:24.593Z,-55
2022-11-13T08:30:30.794Z,-53
2022-11-13T08:31:36.080Z,-52
2022-11-13T08:32:42.349Z,-53
2022-11-13T08:33:48.649Z,-53
2022-11-13T08:34:54.895Z,-52
2022-11-13T08:36:01.170Z,-52
2022-11-13T08:37:07.439Z,-52
2022-11-13T08:38:13.718Z,-51
2022-11-13T08:39:20.029Z,-53
2022-11-13T08:40:26.249Z,-52
2022-11-13T08:41:32.526Z,-53
2022-11-13T08:42:38.807Z,-53
2022-11-13T08:43:45.103Z,-53
2022-11-13T08:44:51.346Z,-52
2022-11-13T08:45:57.612Z,-53
2022-11-13T08:47:02.909Z,-52
2022-11-13T08:48:09.174Z,-53
2022-11-13T08:49:15.467Z,-52
2022-11-13T08:50:21.743Z,-53
2022-11-13T08:51:28.022Z,-53
2022-11-13T08:52:34.285Z,-53
2022-11-13T08:53:40.536Z,-53
2022-11-13T08:54:46.809Z,-53
2022-11-13T08:55:53.118Z,-53
2022-11-13T08:56:59.411Z,-53
2022-11-13T08:58:05.678Z,-52
2022-11-13T08:59:11.901Z,-54
2022-11-13T09:00:18.194Z,-53
2022-11-13T09:01:23.457Z,-53
2022-11-13T09:02:29.742Z,-51
2022-11-13T09:03:36.052Z,-53
2022-11-13T09:04:42.272Z,-53
2022-11-13T09:05:48.544Z,-53
2022-11-13T09:06:54.815Z,-53
2022-11-13T09:08:01.123Z,-52
2022-11-13T09:10:13.705Z,-52
2022-11-13T09:11:19.892Z,-53
2022-11-13T09:12:26.257Z,-51
2022-11-13T09:13:32.467Z,-53
2022-11-13T09:14:38.723Z,-52
2022-11-13T09:15:44.010Z,-52
2022-11-13T09:16:50.280Z,-52
2022-11-13T09:17:56.559Z,-51
2022-11-13T09:19:02.826Z,-53
2022-11-13T09:20:09.095Z,-52
2022-11-13T09:21:15.373Z,-52
2022-11-13T09:22:21.643Z,-52
2022-11-13T09:23:27.985Z,-52
2022-11-13T09:24:34.192Z,-51
2022-11-13T09:25:40.541Z,-52
2022-11-13T09:26:46.730Z,-50
2022-11-13T09:27:53.001Z,-52
2022-11-13T09:28:59.294Z,-53
2022-11-13T09:30:04.565Z,-51
2022-11-13T09:31:10.843Z,-53
2022-11-13T09:32:17.167Z,-53
2022-11-13T09:33:23.464Z,-50
2022-11-13T09:34:29.720Z,-52
2022-11-13T09:35:35.931Z,-51
2022-11-13T09:36:42.306Z,-50
2022-11-13T09:37:48.469Z,-50
2022-11-13T09:38:54.738Z,-50
2022-11-13T09:40:01.018Z,-51
2022-11-13T09:41:07.304Z,-51
2022-11-13T09:42:13.555Z,-50
2022-11-13T09:43:19.824Z,-50
2022-11-13T09:44:25.119Z,-50
2022-11-13T09:45:31.392Z,-51
2022-11-13T09:46:37.661Z,-50
2022-11-13T09:47:43.943Z,-52
2022-11-13T09:48:50.202Z,-50
2022-11-13T09:49:56.481Z,-51
2022-11-13T09:51:02.748Z,-50
2022-11-13T09:52:09.023Z,-50
2022-11-13T09:53:15.354Z,-51
2022-11-13T09:54:21.601Z,-50
2022-11-13T09:55:27.836Z,-50
2022-11-13T09:56:34.163Z,-50
2022-11-13T09:57:40.391Z,-49
2022-11-13T09:58:45.682Z,-51
2022-11-13T09:59:52.002Z,-50
2022-11-13T10:00:58.225Z,-50
2022-11-13T10:02:04.488Z,-48
2022-11-13T10:03:10.836Z,-51
2022-11-13T10:04:17.118Z,-50
2022-11-13T10:05:23.302Z,-50
2022-11-13T10:06:29.629Z,-49
2022-11-13T10:07:35.840Z,-50
2022-11-13T10:08:42.123Z,-49
2022-11-13T10:09:47.458Z,-50
2022-11-13T10:10:52.707Z,-50
2022-11-13T10:11:59.021Z,-50
2022-11-13T10:13:04.278Z,-50
2022-11-13T10:14:09.615Z,-46
2022-11-13T10:15:15.919Z,-50
2022-11-13T10:16:22.125Z,-49
2022-11-13T10:17:28.377Z,-48
2022-11-13T10:18:34.681Z,-49
2022-11-13T10:19:41.024Z,-49
2022-11-13T10:20:47.197Z,-49
2022-11-13T10:21:53.472Z,-48
2022-11-13T10:22:59.814Z,-50
2022-11-13T10:24:06.014Z,-48
2022-11-13T10:25:12.310Z,-49
2022-11-13T10:26:18.562Z,-47
2022-11-13T10:27:24.892Z,-48
2022-11-13T10:28:30.114Z,-49
2022-11-13T10:29:36.395Z,-48
2022-11-13T10:30:42.662Z,-48
2022-11-13T10:31:48.940Z,-48
2022-11-13T10:32:55.275Z,-47
2022-11-13T10:34:01.491Z,-49
2022-11-13T10:35:07.752Z,-48
2022-11-13T10:36:14.016Z,-50
2022-11-13T10:37:20.328Z,-49
2022-11-13T10:38:26.612Z,-48
2022-11-13T10:39:32.833Z,-49
2022-11-13T10:40:38.174Z,-49
2022-11-13T10:41:44.453Z,-48
2022-11-13T10:42:50.781Z,-49
2022-11-13T10:43:56.943Z,-48
2022-11-13T10:45:03.240Z,-49
2022-11-13T10:46:09.495Z,-50
2022-11-13T10:47:15.758Z,-47
2022-11-13T10:48:22.047Z,-49
2022-11-13T10:49:28.326Z,-48
2022-11-13T10:50:34.577Z,-49
2022-11-13T10:51:40.878Z,-49
2022-11-13T10:52:47.133Z,-47
2022-11-13T10:53:53.444Z,-49
2022-11-13T10:54:58.770Z,-47
2022-11-13T10:56:04.962Z,-48
2022-11-13T10:57:11.236Z,-47
2022-11-13T10:58:17.508Z,-46
2022-11-13T10:59:23.768Z,-46
2022-11-13T11:00:30.043Z,-47
2022-11-13T11:01:36.316Z,-48
2022-11-13T11:02:41.613Z,-46
2022-11-13T11:03:46.897Z,-47
2022-11-13T11:04:53.257Z,-47
2022-11-13T11:05:59.447Z,-47
2022-11-13T11:07:04.741Z,-46
2022-11-13T11:08:10.028Z,-47
2022-11-13T11:09:16.299Z,-47
2022-11-13T11:10:22.579Z,-48
2022-11-13T11:11:28.849Z,-47
2022-11-13T11:12:35.166Z,-47
2022-11-13T11:13:41.392Z,-46
2022-11-13T11:14:47.666Z,-47
2022-11-13T11:15:54.011Z,-46
2022-11-13T11:17:00.206Z,-46
2022-11-13T11:18:06.481Z,-46
2022-11-13T11:19:12.764Z,-46
2022-11-13T11:20:19.034Z,-46
2022-11-13T11:21:25.383Z,-46
2022-11-13T11:22:30.583Z,-45
2022-11-13T11:23:36.864Z,-46
2022-11-13T11:24:43.176Z,-46
2022-11-13T11:25:49.401Z,-46
2022-11-13T11:26:55.677Z,-46
2022-11-13T11:28:01.944Z,-46
2022-11-13T11:29:08.219Z,-46
2022-11-13T11:30:13.515Z,-46
2022-11-13T11:31:18.804Z,-46
2022-11-13T11:32:25.092Z,-44
2022-11-13T11:33:31.347Z,-44
2022-11-13T11:34:37.616Z,-43
2022-11-13T11:35:43.892Z,-45
2022-11-13T11:36:49.208Z,-44
2022-11-13T11:37:54.477Z,-46
2022-11-13T11:39:00.770Z,-45
2022-11-13T11:40:07.027Z,-45
2022-11-13T11:41:13.295Z,-46
2022-11-13T11:42:19.573Z,-45
2022-11-13T11:43:25.901Z,-45
2022-11-13T11:44:32.117Z,-45
2022-11-13T11:45:38.424Z,-46
2022-11-13T11:46:44.661Z,-45
2022-11-13T11:47:50.977Z,-45
2022-11-13T11:48:57.246Z,-44
2022-11-13T11:50:03.482Z,-43
2022-11-13T11:51:09.739Z,-43
2022-11-13T11:52:15.037Z,-45
2022-11-13T11:53:21.305Z,-43
2022-11-13T11:54:27.581Z,-43
2022-11-13T11:55:33.848Z,-43
2022-11-13T11:56:40.117Z,-43
2022-11-13T11:57:46.393Z,-44
2022-11-13T11:58:52.722Z,-44
2022-11-13T11:59:58.968Z,-44
2022-11-13T12:01:05.211Z,-44
2022-11-13T12:02:11.511Z,-43
2022-11-13T12:03:17.751Z,-43
2022-11-13T12:04:24.024Z,-43
2022-11-13T12:05:30.312Z,-44
2022-11-13T12:06:35.593Z,-44
2022-11-13T12:07:41.861Z,-44
2022-11-13T12:08:48.129Z,-44
2022-11-13T12:09:54.407Z,-43
2022-11-13T12:11:00.674Z,-43
2022-11-13T12:12:06.975Z,-43
2022-11-13T12:13:13.215Z,-43
2022-11-13T12:14:19.529Z,-42
2022-11-13T12:15:25.759Z,-43
2022-11-13T12:16:32.111Z,-42
2022-11-13T12:17:38.304Z,-43
2022-11-13T12:18:44.575Z,-43
2022-11-13T12:19:50.860Z,-44
2022-11-13T12:20:56.140Z,-42
2022-11-13T12:22:02.412Z,-40
2022-11-13T12:23:08.721Z,-42
2022-11-13T12:24:15.068Z,-42
2022-11-13T12:25:21.223Z,-42
2022-11-13T12:26:27.510Z,-40
2022-11-13T12:27:33.777Z,-40
2022-11-13T12:28:40.055Z,-41
2022-11-13T12:29:46.315Z,-41
2022-11-13T12:30:52.584Z,-42
2022-11-13T12:31:58.992Z,-42
2022-11-13T12:33:05.153Z,-41
2022-11-13T12:34:11.400Z,-41
2022-11-13T12:35:16.806Z,-41
2022-11-13T12:36:23.034Z,-41
2022-11-13T12:37:29.232Z,-42
2022-11-13T12:38:35.510Z,-42
2022-11-13T12:39:41.775Z,-42
2022-11-13T12:40:48.049Z,-41
2022-11-13T12:41:54.440Z,-42
2022-11-13T12:43:00.608Z,-43
2022-11-13T12:44:06.890Z,-43
2022-11-13T12:45:13.133Z,-43
2022-11-13T12:46:19.469Z,-44
2022-11-13T12:47:25.722Z,-43
2022-11-13T12:48:31.970Z,-44
2022-11-13T12:49:37.289Z,-43
2022-11-13T12:50:43.526Z,-43
2022-11-13T12:51:49.783Z,-43
2022-11-13T12:52:56.049Z,-43
2022-11-13T12:54:02.327Z,-42
2022-11-13T12:55:08.599Z,-43
2022-11-13T12:56:14.875Z,-43
2022-11-13T12:57:21.149Z,-43
2022-11-13T12:58:27.415Z,-45
2022-11-13T12:59:33.689Z,-43
2022-11-13T13:00:40.029Z,-43
2022-11-13T13:01:46.243Z,-43
2022-11-13T13:02:52.558Z,-43
2022-11-13T13:03:57.786Z,-43
2022-11-13T13:05:04.064Z,-43
2022-11-13T13:06:10.337Z,-43
2022-11-13T13:07:16.627Z,-43
2022-11-13T13:08:22.874Z,-43
2022-11-13T13:09:29.147Z,-43
2022-11-13T13:10:35.418Z,-43
2022-11-13T13:11:41.708Z,-44
2022-11-13T13:12:47.971Z,-43
2022-11-13T13:13:54.238Z,-44
2022-11-13T13:14:59.539Z,-43
2022-11-13T13:16:04.819Z,-43
2022-11-13T13:17:11.105Z,-43
2022-11-13T13:18:17.375Z,-45
2022-11-13T13:19:23.634Z,-44
2022-11-13T13:20:28.934Z,-43
2022-11-13T13:21:34.224Z,-43
2022-11-13T13:22:40.542Z,-43
2022-11-13T13:23:46.765Z,-44
2022-11-13T13:24:53.048Z,-43
2022-11-13T13:25:59.316Z,-43
2022-11-13T13:27:05.589Z,-43
2022-11-13T13:28:11.858Z,-43
2022-11-13T13:29:18.137Z,-43
2022-11-13T13:30:24.399Z,-43
2022-11-13T13:31:30.670Z,-42
2022-11-13T13:32:36.940Z,-43
2022-11-13T13:33:43.340Z,-43
2022-11-13T13:34:49.489Z,-43
2022-11-13T13:35:54.855Z,-43
2022-11-13T13:37:01.043Z,-43
2022-11-13T13:38:07.319Z,-43
2022-11-13T13:39:13.672Z,-43
2022-11-13T13:40:19.858Z,-43
2022-11-13T13:41:26.135Z,-43
2022-11-13T13:42:32.402Z,-43
2022-11-13T13:43:38.674Z,-42
2022-11-13T13:44:44.955Z,-43
2022-11-13T13:45:51.233Z,-43
2022-11-13T13:46:57.531Z,-43
2022-11-13T13:48:03.762Z,-43
2022-11-13T13:49:10.044Z,-44
2022-11-13T13:50:15.340Z,-42
2022-11-13T13:51:21.629Z,-44
2022-11-13T13:52:27.878Z,-40
2022-11-13T13:53:34.225Z,-43
2022-11-13T13:54:40.423Z,-43
2022-11-13T13:55:46.685Z,-43
2022-11-13T13:56:52.958Z,-43
2022-11-13T13:57:59.230Z,-43
2022-11-13T13:59:05.497Z,-43
2022-11-13T14:00:11.772Z,-43
2022-11-13T14:01:18.047Z,-43
2022-11-13T14:02:24.320Z,-44
2022-11-13T14:03:30.593Z,-43
2022-11-13T14:04:35.877Z,-43
2022-11-13T14:05:42.364Z,-43
2022-11-13T14:06:48.507Z,-43
2022-11-13T14:07:54.691Z,-43
2022-11-13T14:09:01.071Z,-43
2022-11-13T14:10:07.239Z,-43
2022-11-13T14:11:13.594Z,-43
2022-11-13T14:12:19.941Z,-43
2022-11-13T14:13:26.044Z,-43
2022-11-13T14:14:32.489Z,-43
2022-11-13T14:15:38.722Z,-43
2022-11-13T14:16:45.023Z,-43
2022-11-13T14:17:51.281Z,-44
2022-11-13T14:18:56.560Z,-44
2022-11-13T14:20:02.795Z,-43
2022-11-13T14:21:09.141Z,-43
2022-11-13T14:22:14.279Z,-43
2022-11-13T14:23:20.733Z,-43
2022-11-13T14:24:26.962Z,-43
2022-11-13T14:25:33.265Z,-43
2022-11-13T14:26:39.510Z,-43
2022-11-13T14:27:45.679Z,-43
2022-11-13T14:28:52.061Z,-43
2022-11-13T14:29:58.162Z,-42
2022-11-13T14:31:04.574Z,-43
2022-11-13T14:32:10.852Z,-44
2022-11-13T14:33:17.145Z,-43
2022-11-13T14:34:23.452Z,-43
2022-11-13T14:35:29.758Z,-44
2022-11-13T14:36:35.079Z,-43
2022-11-13T14:37:41.238Z,-43
2022-11-13T14:38:47.507Z,-43
2022-11-13T14:39:53.813Z,-43
2022-11-13T14:41:00.115Z,-43
2022-11-13T14:42:06.320Z,-43
2022-11-13T14:43:12.657Z,-43
2022-11-13T14:44:18.879Z,-44
2022-11-13T14:45:25.187Z,-43
2022-11-13T14:46:31.454Z,-43
2022-11-13T14:47:37.823Z,-43
2022-11-13T14:48:43.976Z,-43
2022-11-13T14:49:50.236Z,-43
2022-11-13T14:50:55.403Z,-43
2022-11-13T14:52:01.850Z,-44
2022-11-13T14:53:08.164Z,-43
2022-11-13T14:54:14.354Z,-44
2022-11-13T14:55:20.595Z,-43
2022-11-13T14:56:26.862Z,-44
2022-11-13T14:57:33.175Z,-42
2022-11-13T14:58:39.439Z,-42
2022-11-13T14:59:44.734Z,-44
2022-11-13T15:00:49.981Z,-42
2022-11-13T15:01:56.191Z,-43
2022-11-13T15:03:02.565Z,-44
2022-11-13T15:04:07.914Z,-43
2022-11-13T15:05:13.156Z,-43
2022-11-13T15:06:19.514Z,-43
2022-11-13T15:07:25.525Z,-43
2022-11-13T15:08:31.960Z,-43
2022-11-13T15:09:38.263Z,-43
2022-11-13T15:10:44.523Z,-42
2022-11-13T15:11:50.613Z,-43
2022-11-13T15:12:57.128Z,-43